CSZ9638 ZYCC-ZGSZ
Flight info
| Callsign | CSZ9638 |
|---|---|
| Flight time | N/A |
| Altitude | 32100 |
| Route | M078S0980 BUTET G341 TGO G212 VYK W37 OMBEB R473 NOLON W90 POU W7 SAREX |
| Aircraft | B38M/M-SDE2E3FGHIRWYZ/LB1 |
Departure
| Time | 2026-04-28 10:12 |
|---|---|
| Airport | Changchun Longjia International Airport (ZYCC) |
Arrival
| Time | N/A |
|---|---|
| Airport | Shenzhen Bao'an International Airport (ZGSZ) |
| Time | Latitude | Longitude | Altitude | Speed | Heading |
|---|---|---|---|---|---|
| 2026-04-28 09:47 | 43.99552 | 125.69200 | 716 ft | 0 kts | 140° |
| 2026-04-28 09:57 | 43.99560 | 125.69190 | 721 ft | 2 kts | 140° |
| 2026-04-28 09:57 | 43.99573 | 125.69176 | 719 ft | 2 kts | 140° |
| 2026-04-28 09:58 | 43.99586 | 125.69161 | 717 ft | 2 kts | 141° |
| 2026-04-28 09:58 | 43.99598 | 125.69146 | 718 ft | 2 kts | 118° |
| 2026-04-28 09:58 | 43.99601 | 125.69124 | 717 ft | 2 kts | 79° |
| 2026-04-28 09:58 | 43.99598 | 125.69111 | 717 ft | 0 kts | 54° |
| 2026-04-28 10:04 | 43.99600 | 125.69115 | 716 ft | 1 kts | 53° |
| 2026-04-28 10:04 | 43.99613 | 125.69136 | 718 ft | 4 kts | 49° |
| 2026-04-28 10:04 | 43.99638 | 125.69177 | 719 ft | 7 kts | 49° |
| 2026-04-28 10:04 | 43.99680 | 125.69244 | 719 ft | 11 kts | 49° |
| 2026-04-28 10:05 | 43.99731 | 125.69328 | 718 ft | 12 kts | 49° |
| 2026-04-28 10:05 | 43.99790 | 125.69422 | 720 ft | 14 kts | 47° |
| 2026-04-28 10:05 | 43.99844 | 125.69503 | 718 ft | 6 kts | 44° |
| 2026-04-28 10:05 | 43.99885 | 125.69501 | 719 ft | 7 kts | 325° |
| 2026-04-28 10:06 | 43.99926 | 125.69492 | 718 ft | 7 kts | 44° |
| 2026-04-28 10:06 | 43.99961 | 125.69546 | 716 ft | 8 kts | 49° |
| 2026-04-28 10:06 | 44.00004 | 125.69616 | 721 ft | 11 kts | 49° |
| 2026-04-28 10:06 | 44.00056 | 125.69699 | 721 ft | 12 kts | 49° |
| 2026-04-28 10:07 | 44.00115 | 125.69794 | 720 ft | 14 kts | 49° |
| 2026-04-28 10:07 | 44.00180 | 125.69898 | 716 ft | 15 kts | 49° |
| 2026-04-28 10:07 | 44.00253 | 125.70013 | 716 ft | 17 kts | 49° |
| 2026-04-28 10:07 | 44.00331 | 125.70139 | 718 ft | 18 kts | 50° |
| 2026-04-28 10:08 | 44.00390 | 125.70225 | 717 ft | 2 kts | 19° |
| 2026-04-28 10:08 | 44.00403 | 125.70218 | 716 ft | 2 kts | 320° |
| 2026-04-28 10:08 | 44.00419 | 125.70200 | 719 ft | 4 kts | 320° |
| 2026-04-28 10:08 | 44.00445 | 125.70170 | 719 ft | 6 kts | 320° |
| 2026-04-28 10:09 | 44.00480 | 125.70128 | 716 ft | 7 kts | 319° |
| 2026-04-28 10:09 | 44.00523 | 125.70076 | 716 ft | 9 kts | 319° |
| 2026-04-28 10:09 | 44.00554 | 125.70014 | 720 ft | 7 kts | 266° |
| 2026-04-28 10:09 | 44.00535 | 125.69962 | 720 ft | 0 kts | 227° |
| 2026-04-28 10:11 | 44.00514 | 125.69930 | 717 ft | 13 kts | 227° |
| 2026-04-28 10:12 | 44.00281 | 125.69555 | 718 ft | 90 kts | 229° |
| 2026-04-28 10:12 | 43.99719 | 125.68650 | 718 ft | 155 kts | 229° |
| 2026-04-28 10:12 | 43.98934 | 125.67397 | 1089 ft | 178 kts | 230° |
| 2026-04-28 10:12 | 43.98123 | 125.66088 | 1977 ft | 180 kts | 232° |
| 2026-04-28 10:13 | 43.97310 | 125.64750 | 2927 ft | 185 kts | 232° |
| 2026-04-28 10:13 | 43.96424 | 125.63332 | 3618 ft | 205 kts | 231° |
| 2026-04-28 10:13 | 43.95443 | 125.61762 | 4225 ft | 225 kts | 231° |
| 2026-04-28 10:13 | 43.94373 | 125.60049 | 4584 ft | 244 kts | 231° |
| 2026-04-28 10:14 | 43.93215 | 125.58193 | 4964 ft | 262 kts | 231° |
| 2026-04-28 10:14 | 43.92010 | 125.56263 | 5661 ft | 264 kts | 231° |
| 2026-04-28 10:14 | 43.90803 | 125.54328 | 6406 ft | 267 kts | 231° |
| 2026-04-28 10:14 | 43.89577 | 125.52364 | 7111 ft | 270 kts | 231° |
| 2026-04-28 10:15 | 43.88355 | 125.50408 | 7776 ft | 274 kts | 231° |
| 2026-04-28 10:15 | 43.87103 | 125.48407 | 8457 ft | 276 kts | 231° |
| 2026-04-28 10:15 | 43.85834 | 125.46376 | 9177 ft | 280 kts | 232° |
| 2026-04-28 10:15 | 43.84552 | 125.44330 | 10009 ft | 283 kts | 232° |
| 2026-04-28 10:16 | 43.83237 | 125.42229 | 10511 ft | 297 kts | 232° |
| 2026-04-28 10:16 | 43.81837 | 125.39997 | 10812 ft | 317 kts | 232° |
| 2026-04-28 10:16 | 43.80350 | 125.37626 | 11139 ft | 334 kts | 232° |
| 2026-04-28 10:16 | 43.79133 | 125.34864 | 11585 ft | 338 kts | 254° |
| 2026-04-28 10:17 | 43.78716 | 125.31695 | 12342 ft | 337 kts | 267° |
| 2026-04-28 10:17 | 43.78493 | 125.28433 | 12959 ft | 343 kts | 267° |
| 2026-04-28 10:17 | 43.78283 | 125.25128 | 13692 ft | 346 kts | 268° |
| 2026-04-28 10:17 | 43.78083 | 125.21788 | 14309 ft | 350 kts | 268° |
| 2026-04-28 10:18 | 43.77889 | 125.18413 | 14963 ft | 353 kts | 268° |
| 2026-04-28 10:18 | 43.77694 | 125.15012 | 15618 ft | 355 kts | 268° |
| 2026-04-28 10:18 | 43.77500 | 125.11586 | 16235 ft | 359 kts | 268° |
| 2026-04-28 10:18 | 43.77306 | 125.08128 | 16856 ft | 362 kts | 268° |
| 2026-04-28 10:19 | 43.77111 | 125.04644 | 17460 ft | 365 kts | 268° |
| 2026-04-28 10:19 | 43.76912 | 125.01134 | 18069 ft | 367 kts | 269° |
| 2026-04-28 10:19 | 43.76710 | 124.97587 | 18616 ft | 370 kts | 269° |
| 2026-04-28 10:19 | 43.76509 | 124.94063 | 19099 ft | 374 kts | 269° |
| 2026-04-28 10:20 | 43.76301 | 124.90451 | 19578 ft | 377 kts | 269° |
| 2026-04-28 10:20 | 43.76091 | 124.86814 | 20049 ft | 381 kts | 269° |
| 2026-04-28 10:20 | 43.75879 | 124.83151 | 20515 ft | 384 kts | 269° |
| 2026-04-28 10:20 | 43.75662 | 124.79447 | 20972 ft | 387 kts | 269° |
| 2026-04-28 10:21 | 43.75517 | 124.76976 | 21280 ft | 390 kts | 269° |
| 2026-04-28 10:21 | 43.75219 | 124.71944 | 21888 ft | 394 kts | 269° |
| 2026-04-28 10:21 | 43.74993 | 124.68148 | 22341 ft | 398 kts | 269° |
| 2026-04-28 10:21 | 43.74767 | 124.64369 | 22788 ft | 401 kts | 269° |
| 2026-04-28 10:22 | 43.74535 | 124.60505 | 23241 ft | 404 kts | 269° |
| 2026-04-28 10:22 | 43.74299 | 124.56610 | 23673 ft | 407 kts | 269° |
| 2026-04-28 10:22 | 43.74141 | 124.54011 | 23921 ft | 410 kts | 269° |
| 2026-04-28 10:22 | 43.73900 | 124.50062 | 24311 ft | 412 kts | 269° |
| 2026-04-28 10:23 | 43.73354 | 124.44774 | 24829 ft | 422 kts | 256° |
| 2026-04-28 10:23 | 43.72176 | 124.41082 | 25276 ft | 427 kts | 248° |
| 2026-04-28 10:23 | 43.71297 | 124.38577 | 25480 ft | 430 kts | 248° |
| 2026-04-28 10:23 | 43.69538 | 124.33643 | 25997 ft | 434 kts | 247° |
| 2026-04-28 10:24 | 43.68686 | 124.31090 | 26226 ft | 433 kts | 254° |
| 2026-04-28 10:24 | 43.67985 | 124.25741 | 26693 ft | 428 kts | 269° |
| 2026-04-28 10:24 | 43.67706 | 124.21626 | 26980 ft | 432 kts | 269° |
| 2026-04-28 10:24 | 43.67526 | 124.18833 | 27239 ft | 433 kts | 269° |
| 2026-04-28 10:25 | 43.67272 | 124.14671 | 27590 ft | 436 kts | 270° |
| 2026-04-28 10:25 | 43.67028 | 124.10538 | 27925 ft | 439 kts | 270° |
| 2026-04-28 10:25 | 43.66784 | 124.06328 | 28274 ft | 441 kts | 270° |
| 2026-04-28 10:25 | 43.66537 | 124.02090 | 28539 ft | 445 kts | 270° |
| 2026-04-28 10:26 | 43.66287 | 123.97808 | 28799 ft | 449 kts | 270° |
| 2026-04-28 10:26 | 43.66033 | 123.93499 | 29165 ft | 451 kts | 270° |
| 2026-04-28 10:26 | 43.65777 | 123.89174 | 29459 ft | 454 kts | 270° |
| 2026-04-28 10:26 | 43.65517 | 123.84816 | 29784 ft | 456 kts | 270° |
| 2026-04-28 10:27 | 43.65254 | 123.80438 | 30087 ft | 459 kts | 270° |
| 2026-04-28 10:27 | 43.64988 | 123.76036 | 30347 ft | 461 kts | 270° |
| 2026-04-28 10:27 | 43.64720 | 123.71622 | 30625 ft | 462 kts | 270° |
| 2026-04-28 10:27 | 43.64448 | 123.67184 | 30899 ft | 464 kts | 269° |
| 2026-04-28 10:28 | 43.64175 | 123.62743 | 31168 ft | 465 kts | 269° |
| 2026-04-28 10:28 | 43.63899 | 123.58290 | 31470 ft | 465 kts | 269° |
| 2026-04-28 10:28 | 43.63623 | 123.53847 | 31779 ft | 466 kts | 269° |
| 2026-04-28 10:29 | 43.63064 | 123.44987 | 32426 ft | 465 kts | 269° |
| 2026-04-28 10:29 | 43.62779 | 123.40490 | 32820 ft | 464 kts | 269° |
| 2026-04-28 10:29 | 43.62500 | 123.36120 | 33207 ft | 462 kts | 269° |
| 2026-04-28 10:29 | 43.62216 | 123.31717 | 33586 ft | 460 kts | 268° |
| 2026-04-28 10:30 | 43.61933 | 123.27318 | 33962 ft | 459 kts | 268° |
| 2026-04-28 10:30 | 43.61648 | 123.22923 | 34152 ft | 459 kts | 268° |
| 2026-04-28 10:30 | 43.61401 | 123.18526 | 34125 ft | 457 kts | 270° |
| 2026-04-28 10:31 | 43.60970 | 123.09796 | 34130 ft | 456 kts | 269° |
| 2026-04-28 10:31 | 43.60557 | 123.01765 | 34140 ft | 458 kts | 269° |
| 2026-04-28 10:32 | 43.60099 | 122.93009 | 34139 ft | 457 kts | 269° |
| 2026-04-28 10:32 | 43.59634 | 122.84257 | 34139 ft | 457 kts | 269° |
| 2026-04-28 10:33 | 43.59163 | 122.75510 | 34145 ft | 457 kts | 269° |
| 2026-04-28 10:33 | 43.58685 | 122.66754 | 34146 ft | 457 kts | 269° |
| 2026-04-28 10:34 | 43.58201 | 122.57997 | 34141 ft | 460 kts | 269° |
| 2026-04-28 10:34 | 43.57705 | 122.49180 | 34143 ft | 461 kts | 269° |
| 2026-04-28 10:35 | 43.57207 | 122.40440 | 34140 ft | 459 kts | 269° |
| 2026-04-28 10:35 | 43.56701 | 122.31661 | 34148 ft | 459 kts | 269° |
| 2026-04-28 10:36 | 43.56118 | 122.22875 | 34136 ft | 462 kts | 261° |
| 2026-04-28 10:36 | 43.55091 | 122.18668 | 34131 ft | 467 kts | 245° |
| 2026-04-28 10:36 | 43.53361 | 122.14861 | 34156 ft | 471 kts | 238° |